createdAt,value
2024-01-12T04:41:31.524Z,100.00
2024-01-12T04:44:34.866Z,100.00
2024-01-12T04:47:37.708Z,100.00
2024-01-12T04:50:40.902Z,100.00
2024-01-12T04:53:43.681Z,100.00
2024-01-12T04:56:46.550Z,100.00
2024-01-12T04:59:49.429Z,100.00
2024-01-12T05:02:53.981Z,100.00
2024-01-12T05:05:57.276Z,100.00
2024-01-12T05:09:01.823Z,100.00
2024-01-12T05:12:06.310Z,100.00
2024-01-12T05:15:10.147Z,100.00
2024-01-12T05:18:13.353Z,100.00
2024-01-12T05:21:16.469Z,100.00
2024-01-12T05:24:19.194Z,100.00
2024-01-12T05:27:23.230Z,100.00
2024-01-12T05:30:25.881Z,100.00
2024-01-12T05:33:29.041Z,100.00
2024-01-12T05:36:32.090Z,100.00
2024-01-12T05:39:35.044Z,100.00
2024-01-12T05:42:37.725Z,100.00
2024-01-12T05:45:40.733Z,100.00
2024-01-12T05:48:47.712Z,100.00
2024-01-12T05:51:52.227Z,100.00
2024-01-12T05:54:56.356Z,100.00
2024-01-12T05:57:59.437Z,100.00
2024-01-12T06:01:02.141Z,100.00
2024-01-12T06:04:05.196Z,100.00
2024-01-12T06:07:07.874Z,100.00
2024-01-12T06:10:11.087Z,100.00
2024-01-12T06:13:14.168Z,100.00
2024-01-12T06:16:17.068Z,100.00
2024-01-12T06:19:19.653Z,100.00
2024-01-12T06:22:22.549Z,100.00
2024-01-12T06:25:25.309Z,100.00
2024-01-12T06:28:28.297Z,100.00
2024-01-12T06:31:32.346Z,100.00
2024-01-12T06:34:35.422Z,100.00
2024-01-12T06:37:39.385Z,100.00
2024-01-12T06:40:45.372Z,100.00
2024-01-12T06:43:48.585Z,100.00
2024-01-12T06:46:51.848Z,100.00
2024-01-12T06:49:55.471Z,100.00
2024-01-12T06:52:58.562Z,100.00
2024-01-12T06:56:04.121Z,100.00
2024-01-12T06:59:07.096Z,100.00
2024-01-12T07:02:10.557Z,100.00
2024-01-12T07:05:16.110Z,100.00
2024-01-12T07:08:19.025Z,100.00
2024-01-12T07:11:21.941Z,100.00
2024-01-12T07:14:24.884Z,100.00
2024-01-12T07:17:27.963Z,100.00
2024-01-12T07:20:31.326Z,100.00
2024-01-12T07:23:34.331Z,100.00
2024-01-12T07:26:37.254Z,100.00
2024-01-12T07:29:40.358Z,100.00
2024-01-12T07:32:43.248Z,100.00
2024-01-12T07:35:46.284Z,100.00
2024-01-12T07:38:49.033Z,100.00
2024-01-12T07:41:52.726Z,100.00
2024-01-12T07:44:55.687Z,100.00
2024-01-12T07:47:58.823Z,100.00
2024-01-12T07:51:01.718Z,100.00
2024-01-12T07:54:05.964Z,100.00
2024-01-12T07:57:08.729Z,100.00
2024-01-12T08:00:12.784Z,100.00
2024-01-12T08:03:15.907Z,100.00
2024-01-12T08:06:18.468Z,100.00
2024-01-12T08:09:21.323Z,100.00
2024-01-12T08:12:24.185Z,100.00
2024-01-12T08:15:27.314Z,100.00
2024-01-12T08:18:31.323Z,100.00
2024-01-12T08:21:44.850Z,100.00
2024-01-12T08:24:51.920Z,100.00
2024-01-12T08:27:55.024Z,99.86
2024-01-12T08:30:57.890Z,98.20
2024-01-12T08:34:01.037Z,97.18
2024-01-12T08:37:04.026Z,96.18
2024-01-12T08:40:07.549Z,95.20
2024-01-12T08:43:12.578Z,92.22
2024-01-12T08:46:15.909Z,91.30
2024-01-12T08:49:18.725Z,91.33
2024-01-12T08:52:21.558Z,85.35
2024-01-12T08:55:24.295Z,84.89
2024-01-12T08:58:27.096Z,84.52
2024-01-12T09:01:29.592Z,84.48
2024-01-12T09:04:32.770Z,82.51
2024-01-12T09:07:35.700Z,81.38
2024-01-12T09:10:38.493Z,80.97
2024-01-12T09:13:42.357Z,79.59
2024-01-12T09:16:46.049Z,80.40
2024-01-12T09:19:48.747Z,79.47
2024-01-12T09:22:52.949Z,78.90
2024-01-12T09:25:56.039Z,77.18
2024-01-12T09:28:59.104Z,77.93
2024-01-12T09:32:01.772Z,76.86
2024-01-12T09:35:05.030Z,74.83
2024-01-12T09:38:08.223Z,74.04
2024-01-12T09:41:11.465Z,73.61
2024-01-12T09:44:18.910Z,72.83
2024-01-12T09:47:21.940Z,71.96
2024-01-12T09:50:25.549Z,72.56
2024-01-12T09:53:28.630Z,71.12
2024-01-12T09:56:39.556Z,69.92
2024-01-12T09:59:51.677Z,69.76
2024-01-12T10:02:54.916Z,67.75
2024-01-12T10:05:58.195Z,68.22
2024-01-12T10:09:01.020Z,68.20
2024-01-12T10:12:04.254Z,67.55
2024-01-12T10:15:12.379Z,68.78
2024-01-12T10:18:15.375Z,69.07
2024-01-12T10:21:20.403Z,66.93
2024-01-12T10:24:23.102Z,66.23
2024-01-12T10:27:25.801Z,66.19
2024-01-12T10:30:32.619Z,65.13
2024-01-12T10:33:35.924Z,65.61
2024-01-12T10:36:40.294Z,65.07
2024-01-12T10:39:46.206Z,64.94
2024-01-12T10:42:50.066Z,64.76
2024-01-12T10:45:57.988Z,64.35
2024-01-12T10:49:17.877Z,63.73
2024-01-12T10:52:47.087Z,62.76
2024-01-12T10:55:59.513Z,62.47
2024-01-12T10:59:02.307Z,62.72
2024-01-12T11:02:06.127Z,63.89
2024-01-12T11:05:09.524Z,62.60
2024-01-12T11:08:12.998Z,62.79
2024-01-12T11:11:20.448Z,64.05
2024-01-12T11:14:26.065Z,64.29
2024-01-12T11:17:34.649Z,64.39
2024-01-12T11:20:40.081Z,64.28
2024-01-12T11:23:43.333Z,62.87
2024-01-12T11:26:46.710Z,63.38
2024-01-12T11:29:57.900Z,62.04
2024-01-12T11:33:08.172Z,61.86
2024-01-12T11:36:15.671Z,61.82
2024-01-12T11:39:23.652Z,64.13
2024-01-12T11:42:26.319Z,65.56
2024-01-12T11:45:30.310Z,63.56
2024-01-12T11:48:33.435Z,63.69
2024-01-12T11:51:36.235Z,63.68
2024-01-12T11:54:39.212Z,65.21
2024-01-12T11:57:42.178Z,65.51
2024-01-12T12:00:44.740Z,65.24
2024-01-12T12:03:47.598Z,64.20
2024-01-12T12:06:50.173Z,64.46
2024-01-12T12:09:53.620Z,64.00
2024-01-12T12:12:56.345Z,65.97
2024-01-12T12:15:59.822Z,68.83
2024-01-12T12:19:04.508Z,69.76
2024-01-12T12:22:08.158Z,70.69
2024-01-12T12:25:12.526Z,71.12
2024-01-12T12:28:16.732Z,70.99
2024-01-12T12:31:19.734Z,70.64
2024-01-12T12:34:22.791Z,71.60
2024-01-12T12:37:26.021Z,73.36
2024-01-12T12:40:29.248Z,70.32
2024-01-12T12:43:32.297Z,69.91
2024-01-12T12:46:35.247Z,70.29
2024-01-12T12:49:43.804Z,70.86
2024-01-12T12:52:47.113Z,72.71
2024-01-12T12:55:50.447Z,73.59
2024-01-12T12:58:53.521Z,73.69
2024-01-12T13:01:56.357Z,72.25
2024-01-12T13:04:59.469Z,69.90
2024-01-12T13:08:02.444Z,71.44
2024-01-12T13:11:05.351Z,71.73
2024-01-12T13:14:08.988Z,72.72
2024-01-12T13:17:12.394Z,70.56
2024-01-12T13:20:17.834Z,70.26
2024-01-12T13:23:20.780Z,70.99
2024-01-12T13:26:23.359Z,72.06
2024-01-12T13:29:26.289Z,71.43
2024-01-12T13:32:29.331Z,70.56
2024-01-12T13:35:33.525Z,70.84
2024-01-12T13:38:36.401Z,69.34
2024-01-12T13:41:40.250Z,68.01
2024-01-12T13:44:43.535Z,68.13
2024-01-12T13:47:46.446Z,68.23
2024-01-12T13:50:50.247Z,68.88
2024-01-12T13:53:56.696Z,68.97
2024-01-12T13:56:59.498Z,68.54
2024-01-12T14:00:02.534Z,66.31
2024-01-12T14:03:13.135Z,64.72
2024-01-12T14:06:16.480Z,65.81
2024-01-12T14:09:20.657Z,65.82
2024-01-12T14:12:24.500Z,65.35
2024-01-12T14:15:27.172Z,64.86
2024-01-12T14:18:30.284Z,64.58
2024-01-12T14:21:33.599Z,65.12
2024-01-12T14:24:38.299Z,63.67
2024-01-12T14:27:42.036Z,62.98
2024-01-12T14:30:46.518Z,63.15
2024-01-12T14:33:49.941Z,63.29
2024-01-12T14:36:53.205Z,63.70
2024-01-12T14:39:55.751Z,64.79
2024-01-12T14:43:00.008Z,66.02
2024-01-12T14:46:04.360Z,66.57
2024-01-12T14:49:09.196Z,66.42
2024-01-12T14:52:13.045Z,66.37
2024-01-12T14:55:16.907Z,66.88
2024-01-12T14:58:21.020Z,66.99
2024-01-12T15:01:23.928Z,67.10
2024-01-12T15:04:29.082Z,66.28
2024-01-12T15:07:33.740Z,66.19
2024-01-12T15:10:36.924Z,65.82
2024-01-12T15:13:40.579Z,65.28
2024-01-12T15:16:45.068Z,65.66
2024-01-12T15:19:47.892Z,68.94
2024-01-12T15:22:50.582Z,69.69
2024-01-12T15:26:04.822Z,70.47
2024-01-12T15:29:07.608Z,71.33
2024-01-12T15:32:10.886Z,72.19
2024-01-12T15:35:14.077Z,72.68
2024-01-12T15:38:19.504Z,71.46
2024-01-12T15:41:22.296Z,68.94
2024-01-12T15:44:25.352Z,68.66
2024-01-12T15:47:28.392Z,70.99
2024-01-12T15:50:31.353Z,71.80
2024-01-12T15:53:34.271Z,72.15
2024-01-12T15:56:37.475Z,73.20
2024-01-12T15:59:40.006Z,72.71
2024-01-12T16:02:43.894Z,73.66
2024-01-12T16:05:46.976Z,70.99
2024-01-12T16:08:49.613Z,71.41
2024-01-12T16:11:55.516Z,73.51
2024-01-12T16:15:00.513Z,74.29
2024-01-12T16:18:05.270Z,75.03
2024-01-12T16:21:08.831Z,74.39
2024-01-12T16:24:11.937Z,73.81
2024-01-12T16:27:17.682Z,74.79
2024-01-12T16:30:20.818Z,75.42
2024-01-12T16:33:25.040Z,75.58
2024-01-12T16:36:27.816Z,75.40
